createdAt,value
2022-12-09T00:02:25.802Z,97198.63
2022-12-09T00:04:54.641Z,97204.19
2022-12-09T00:07:23.950Z,97203.66
2022-12-09T00:09:53.056Z,97193.66
2022-12-09T00:12:21.433Z,97190.94
2022-12-09T00:14:49.838Z,97207.69
2022-12-09T00:17:18.377Z,97202.94
2022-12-09T00:19:47.169Z,97204.75
2022-12-09T00:22:15.689Z,97206.44
2022-12-09T00:24:44.647Z,97196.47
2022-12-09T00:27:12.932Z,97197.06
2022-12-09T00:29:41.480Z,97204.16
2022-12-09T00:32:09.918Z,97211.22
2022-12-09T00:34:39.175Z,97219.34
2022-12-09T00:37:10.354Z,97224.84
2022-12-09T00:39:39.098Z,97226.22
2022-12-09T00:42:07.492Z,97223.09
2022-12-09T00:44:36.349Z,97232.81
2022-12-09T00:47:05.956Z,97229.13
2022-12-09T00:49:34.679Z,97227.41
2022-12-09T00:52:03.614Z,97221.94
2022-12-09T00:54:32.801Z,97221.13
2022-12-09T00:57:01.797Z,97221.69
2022-12-09T00:59:30.287Z,97226.25
2022-12-09T01:01:58.939Z,97216.38
2022-12-09T01:04:27.549Z,97202.59
2022-12-09T01:06:56.100Z,97210.84
2022-12-09T01:09:24.585Z,97211.59
2022-12-09T01:11:53.199Z,97215.38
2022-12-09T01:14:21.942Z,97210.84
2022-12-09T01:16:50.529Z,97214.59
2022-12-09T01:19:19.282Z,97216.78
2022-12-09T01:21:47.801Z,97203.72
2022-12-09T01:24:17.179Z,97217.53
2022-12-09T01:26:46.297Z,97206.47
2022-12-09T01:29:15.033Z,97209.44
2022-12-09T01:31:44.442Z,97201.00
2022-12-09T01:34:12.977Z,97210.53
2022-12-09T01:36:43.419Z,97208.94
2022-12-09T01:39:13.234Z,97205.63
2022-12-09T01:41:41.728Z,97213.00
2022-12-09T01:44:30.253Z,97216.34
2022-12-09T01:47:03.307Z,97206.72
2022-12-09T01:49:39.740Z,97205.28
2022-12-09T01:52:22.586Z,97213.03
2022-12-09T01:54:52.813Z,97219.38
2022-12-09T01:57:21.673Z,97216.13
2022-12-09T01:59:50.507Z,97216.56
2022-12-09T02:02:19.762Z,97225.16
2022-12-09T02:04:49.046Z,97229.09
2022-12-09T02:07:19.300Z,97224.56
2022-12-09T02:10:03.263Z,97214.03
2022-12-09T02:12:54.787Z,97199.59
2022-12-09T02:15:57.073Z,97197.06
2022-12-09T02:18:33.240Z,97192.91
2022-12-09T02:21:05.125Z,97185.22
2022-12-09T02:23:56.589Z,97190.34
2022-12-09T02:26:34.463Z,97194.66
2022-12-09T02:29:18.436Z,97184.59
2022-12-09T02:32:10.422Z,97185.63
2022-12-09T02:34:43.108Z,97188.19
2022-12-09T02:37:18.316Z,97173.38
2022-12-09T02:40:15.939Z,97191.16
2022-12-09T02:42:45.030Z,97189.09
2022-12-09T02:45:14.187Z,97171.59
2022-12-09T02:47:48.921Z,97181.63
2022-12-09T02:50:19.660Z,97193.44
2022-12-09T02:52:49.576Z,97191.22
2022-12-09T02:55:19.347Z,97188.13
2022-12-09T02:57:52.882Z,97196.03
2022-12-09T03:00:22.313Z,97197.03
2022-12-09T03:02:53.371Z,97193.69
2022-12-09T03:05:28.536Z,97200.13
2022-12-09T03:08:06.264Z,97197.59
2022-12-09T03:10:47.590Z,97197.53
2022-12-09T03:13:26.720Z,97190.25
2022-12-09T03:15:59.621Z,97192.31
2022-12-09T03:18:28.591Z,97190.03
2022-12-09T03:20:57.307Z,97186.13
2022-12-09T03:23:25.831Z,97189.50
2022-12-09T03:25:54.371Z,97195.50
2022-12-09T03:28:28.693Z,97194.66
2022-12-09T03:30:57.539Z,97186.50
2022-12-09T03:33:25.898Z,97188.00
2022-12-09T03:35:56.361Z,97184.16
2022-12-09T03:38:24.867Z,97189.69
2022-12-09T03:41:01.571Z,97185.63
2022-12-09T03:43:32.008Z,97186.03
2022-12-09T03:46:01.551Z,97193.09
2022-12-09T03:48:30.082Z,97189.03
2022-12-09T03:51:35.756Z,97190.34
2022-12-09T03:54:07.663Z,97189.38
2022-12-09T03:56:39.988Z,97190.63
2022-12-09T03:59:11.295Z,97190.75
2022-12-09T04:01:41.071Z,97178.75
2022-12-09T04:04:10.321Z,97184.81
2022-12-09T04:06:39.053Z,97194.56
2022-12-09T04:09:07.565Z,97180.75
2022-12-09T04:11:36.218Z,97187.34
2022-12-09T04:14:04.875Z,97192.59
2022-12-09T04:16:33.365Z,97197.41
2022-12-09T04:19:02.519Z,97195.88
2022-12-09T04:21:31.166Z,97192.66
2022-12-09T04:23:59.645Z,97198.38
2022-12-09T04:26:28.647Z,97200.38
2022-12-09T04:28:58.724Z,97200.53
2022-12-09T04:31:27.477Z,97196.44
2022-12-09T04:33:56.153Z,97199.59
2022-12-09T04:36:24.562Z,97193.94
2022-12-09T04:38:54.383Z,97203.34
2022-12-09T04:41:22.865Z,97203.63
2022-12-09T04:43:51.270Z,97202.75
2022-12-09T04:46:19.861Z,97201.75
2022-12-09T04:48:48.717Z,97197.47
2022-12-09T04:51:17.197Z,97183.63
2022-12-09T04:53:45.765Z,97182.59
2022-12-09T04:56:22.248Z,97187.84
2022-12-09T04:58:51.105Z,97192.31
2022-12-09T05:01:24.940Z,97183.91
2022-12-09T05:03:59.615Z,97194.19
2022-12-09T05:06:28.488Z,97196.09
2022-12-09T05:08:58.636Z,97199.25
2022-12-09T05:11:28.214Z,97194.25
2022-12-09T05:13:56.780Z,97186.34
2022-12-09T05:16:26.685Z,97190.16
2022-12-09T05:18:56.222Z,97180.34
2022-12-09T05:21:25.801Z,97192.66
2022-12-09T05:23:54.299Z,97185.75
2022-12-09T05:26:23.562Z,97197.25
2022-12-09T05:28:52.447Z,97190.19
2022-12-09T05:31:22.794Z,97192.72
2022-12-09T05:33:52.348Z,97189.53
2022-12-09T05:36:25.418Z,97199.47
2022-12-09T05:38:54.858Z,97197.25
2022-12-09T05:41:25.248Z,97192.56
2022-12-09T05:43:54.281Z,97199.97
2022-12-09T05:46:23.497Z,97196.63
2022-12-09T05:48:53.600Z,97205.88
2022-12-09T05:51:25.435Z,97210.50
2022-12-09T05:53:54.826Z,97214.09
2022-12-09T05:56:25.508Z,97216.75
2022-12-09T05:58:55.777Z,97207.84
2022-12-09T06:01:25.758Z,97201.91
2022-12-09T06:03:57.752Z,97213.81
2022-12-09T06:06:28.883Z,97220.19
2022-12-09T06:08:59.683Z,97223.22
2022-12-09T06:11:30.027Z,97221.91
2022-12-09T06:13:59.068Z,97220.31
2022-12-09T06:16:29.913Z,97225.31
2022-12-09T06:18:58.641Z,97232.03
2022-12-09T06:21:27.458Z,97227.41
2022-12-09T06:23:57.378Z,97226.16
2022-12-09T06:26:29.916Z,97232.94
2022-12-09T06:28:59.958Z,97229.16
2022-12-09T06:31:30.066Z,97227.41
2022-12-09T06:33:59.913Z,97229.56
2022-12-09T06:36:30.178Z,97234.88
2022-12-09T06:39:09.233Z,97223.88
2022-12-09T06:41:41.417Z,97238.28
2022-12-09T06:44:18.396Z,97229.69
2022-12-09T06:46:51.514Z,97226.09
2022-12-09T06:49:20.722Z,97224.91
2022-12-09T06:51:49.845Z,97219.81
2022-12-09T06:54:19.283Z,97227.00
2022-12-09T06:56:48.433Z,97231.25
2022-12-09T06:59:18.233Z,97217.84
2022-12-09T07:01:47.758Z,97210.19
2022-12-09T07:04:17.738Z,97209.50
2022-12-09T07:06:47.934Z,97228.41
2022-12-09T07:09:18.959Z,97217.09
2022-12-09T07:11:48.151Z,97218.69
2022-12-09T07:14:19.500Z,97224.88
2022-12-09T07:16:48.580Z,97221.44
2022-12-09T07:19:22.193Z,97218.28
2022-12-09T07:21:51.732Z,97230.78
2022-12-09T07:24:21.368Z,97223.19
2022-12-09T07:26:51.458Z,97231.06
2022-12-09T07:29:20.725Z,97222.63
2022-12-09T07:31:49.799Z,97222.38
2022-12-09T07:34:18.598Z,97224.78
2022-12-09T07:36:47.579Z,97223.38
2022-12-09T07:39:18.546Z,97227.03
2022-12-09T07:41:57.715Z,97226.53
2022-12-09T07:44:31.782Z,97224.41
2022-12-09T07:47:01.168Z,97230.41
2022-12-09T07:49:30.937Z,97234.59
2022-12-09T07:52:00.114Z,97237.97
2022-12-09T07:54:29.558Z,97243.81
2022-12-09T07:56:59.107Z,97236.72
2022-12-09T07:59:28.471Z,97242.00
2022-12-09T08:02:02.454Z,97245.88
2022-12-09T08:04:36.866Z,97244.34
2022-12-09T08:07:06.737Z,97248.06
2022-12-09T08:09:36.183Z,97239.44
2022-12-09T08:12:05.676Z,97245.47
2022-12-09T08:14:35.388Z,97235.53
2022-12-09T08:17:05.131Z,97223.88
2022-12-09T08:19:34.059Z,97222.03
2022-12-09T08:22:03.744Z,97210.47
2022-12-09T08:24:33.388Z,97206.72
2022-12-09T08:27:02.720Z,97206.00
2022-12-09T08:29:31.517Z,97203.81
2022-12-09T08:32:01.530Z,97205.13
2022-12-09T08:34:31.592Z,97209.88
2022-12-09T08:37:02.399Z,97208.28
2022-12-09T08:39:31.888Z,97204.78
2022-12-09T08:42:01.559Z,97186.91
2022-12-09T08:44:31.207Z,97191.47
2022-12-09T08:47:00.994Z,97185.84
2022-12-09T08:49:30.675Z,97175.00
2022-12-09T08:51:59.721Z,97173.72
2022-12-09T08:54:28.846Z,97171.94
2022-12-09T08:56:59.073Z,97171.34
2022-12-09T08:59:28.437Z,97170.00
2022-12-09T09:01:57.935Z,97160.69
2022-12-09T09:04:27.975Z,97159.13
2022-12-09T09:06:57.973Z,97159.22
2022-12-09T09:09:26.890Z,97155.44
2022-12-09T09:11:56.035Z,97147.84
2022-12-09T09:14:25.125Z,97138.03
2022-12-09T09:16:54.575Z,97127.34
2022-12-09T09:19:27.712Z,97119.53
2022-12-09T09:21:57.008Z,97110.28
2022-12-09T09:24:26.833Z,97114.19
2022-12-09T09:26:56.987Z,97106.66
2022-12-09T09:29:26.451Z,97106.00
2022-12-09T09:31:56.327Z,97095.47
2022-12-09T09:34:27.241Z,97094.72
2022-12-09T09:36:56.971Z,97088.63
2022-12-09T09:39:26.612Z,97082.22
2022-12-09T09:42:06.244Z,97077.84
2022-12-09T09:44:46.274Z,97075.97
2022-12-09T09:47:44.105Z,97063.16
2022-12-09T09:50:38.686Z,97057.63
2022-12-09T09:53:27.690Z,97044.91
2022-12-09T09:56:03.573Z,97052.84
2022-12-09T09:58:44.282Z,97057.63
2022-12-09T10:01:15.019Z,97041.75
2022-12-09T10:03:52.109Z,97033.56
2022-12-09T10:06:35.300Z,97041.94
2022-12-09T10:09:12.347Z,97035.81
2022-12-09T10:11:52.553Z,97019.91
2022-12-09T10:14:53.215Z,97005.00
2022-12-09T10:17:30.226Z,97012.78
2022-12-09T10:20:06.490Z,96999.88
2022-12-09T10:23:06.847Z,96999.78
2022-12-09T10:25:39.435Z,96999.88
2022-12-09T10:28:23.822Z,96996.66
2022-12-09T10:30:53.899Z,96982.59
2022-12-09T10:33:39.238Z,96982.09
2022-12-09T10:36:33.772Z,96965.50
2022-12-09T10:39:06.093Z,96976.41
2022-12-09T10:42:12.878Z,96970.38
2022-12-09T10:44:41.865Z,96966.75
2022-12-09T10:47:29.126Z,96965.81
2022-12-09T10:50:00.378Z,96966.81
2022-12-09T10:52:31.793Z,96962.72
2022-12-09T10:55:01.179Z,96962.69
2022-12-09T10:57:30.690Z,96964.84
2022-12-09T11:00:27.092Z,96967.63
2022-12-09T11:02:57.026Z,96953.06
2022-12-09T11:05:29.009Z,96961.53
2022-12-09T11:07:59.646Z,96960.63
2022-12-09T11:10:30.931Z,96954.28
2022-12-09T11:13:10.451Z,96963.22
2022-12-09T11:15:44.886Z,96955.94
2022-12-09T11:18:30.116Z,96959.94
2022-12-09T11:21:01.958Z,96959.84
2022-12-09T11:23:31.820Z,96955.13
2022-12-09T11:26:06.183Z,96946.19
2022-12-09T11:28:39.353Z,96948.38
2022-12-09T11:31:35.255Z,96936.84
2022-12-09T11:34:09.878Z,96941.47
2022-12-09T11:36:44.356Z,96943.53
2022-12-09T11:39:35.351Z,96944.13
2022-12-09T11:42:19.425Z,96943.56
2022-12-09T11:45:01.309Z,96947.47
2022-12-09T11:48:24.210Z,96939.53
2022-12-09T11:50:33.592Z,96928.19
2022-12-09T11:53:24.261Z,96926.09
2022-12-09T11:56:20.820Z,96926.50
2022-12-09T11:59:11.520Z,96924.34
2022-12-09T12:01:52.485Z,96918.28
2022-12-09T12:04:29.126Z,96920.13
2022-12-09T12:07:08.048Z,96904.31
2022-12-09T12:09:38.951Z,96905.31
2022-12-09T12:12:25.676Z,96920.59
2022-12-09T12:14:55.877Z,96922.00
2022-12-09T12:17:34.711Z,96920.38
2022-12-09T12:20:04.984Z,96927.16
2022-12-09T12:22:54.534Z,96924.19
2022-12-09T12:25:29.913Z,96926.56
2022-12-09T12:28:06.031Z,96936.84
2022-12-09T12:30:57.499Z,96940.22
2022-12-09T12:34:28.024Z,96936.31
2022-12-09T12:37:05.657Z,96922.50
2022-12-09T12:39:49.794Z,96931.63
2022-12-09T12:43:08.312Z,96932.38
2022-12-09T12:46:18.596Z,96917.78
2022-12-09T12:48:53.348Z,96923.69
2022-12-09T12:51:48.488Z,96925.66
2022-12-09T12:54:27.064Z,96928.25
2022-12-09T12:57:17.684Z,96925.03
2022-12-09T13:00:10.179Z,96933.22
2022-12-09T13:03:08.880Z,96940.53
2022-12-09T13:05:42.799Z,96922.25
2022-12-09T13:08:30.132Z,96922.50
2022-12-09T13:11:00.026Z,96927.78
2022-12-09T13:13:34.463Z,96936.03
2022-12-09T13:16:19.105Z,96932.91
2022-12-09T13:18:47.641Z,96932.31
2022-12-09T13:21:16.383Z,96921.44
2022-12-09T13:24:00.502Z,96933.66
2022-12-09T13:26:51.541Z,96929.16
2022-12-09T13:29:49.595Z,96924.91
2022-12-09T13:32:30.848Z,96917.00
2022-12-09T13:35:14.954Z,96926.41
2022-12-09T13:37:43.342Z,96909.28
2022-12-09T13:40:20.961Z,96910.03
2022-12-09T13:42:59.242Z,96929.50
2022-12-09T13:45:32.447Z,96922.84
2022-12-09T13:48:22.872Z,96913.47
2022-12-09T13:50:57.885Z,96915.72
2022-12-09T13:53:34.086Z,96916.78
2022-12-09T13:56:05.248Z,96916.06
2022-12-09T13:59:01.722Z,96912.13
2022-12-09T14:01:32.796Z,96916.25
2022-12-09T14:04:09.354Z,96905.13
2022-12-09T14:07:10.028Z,96906.91
2022-12-09T14:09:58.309Z,96904.88
2022-12-09T14:12:26.721Z,96905.38
2022-12-09T14:14:55.761Z,96911.91
2022-12-09T14:17:24.230Z,96907.66
2022-12-09T14:19:57.119Z,96910.91
2022-12-09T14:22:25.933Z,96907.41
2022-12-09T14:24:59.464Z,96902.22
2022-12-09T14:27:32.047Z,96909.00
2022-12-09T14:30:04.407Z,96902.19
2022-12-09T14:32:51.321Z,96899.09
2022-12-09T14:35:31.827Z,96891.00
2022-12-09T14:38:22.031Z,96893.75
2022-12-09T14:41:07.152Z,96892.72
2022-12-09T14:43:50.520Z,96890.38
2022-12-09T14:46:27.449Z,96887.44
2022-12-09T14:48:57.515Z,96883.63
2022-12-09T14:51:27.676Z,96873.59
2022-12-09T14:54:01.297Z,96878.81
2022-12-09T14:56:30.609Z,96879.41
2022-12-09T14:59:09.355Z,96885.88
2022-12-09T15:01:55.424Z,96880.53
2022-12-09T15:04:30.207Z,96883.91
2022-12-09T15:07:21.394Z,96885.66
2022-12-09T15:09:54.890Z,96872.00
2022-12-09T15:12:28.058Z,96876.94
2022-12-09T15:15:08.753Z,96869.09
2022-12-09T15:17:49.224Z,96855.44
2022-12-09T15:20:38.203Z,96869.91
2022-12-09T15:23:06.528Z,96861.44
2022-12-09T15:25:37.004Z,96866.78
2022-12-09T15:28:13.672Z,96866.13
2022-12-09T15:30:44.295Z,96869.88
2022-12-09T15:33:18.164Z,96879.94
2022-12-09T15:35:53.402Z,96874.91
2022-12-09T15:38:22.119Z,96868.59
2022-12-09T15:41:08.801Z,96853.03
2022-12-09T15:43:37.250Z,96858.19
2022-12-09T15:46:06.551Z,96849.63
2022-12-09T15:48:37.716Z,96855.31
2022-12-09T15:51:08.209Z,96853.25
2022-12-09T15:53:42.269Z,96837.47
2022-12-09T15:56:40.138Z,96824.31
2022-12-09T15:59:17.789Z,96827.31
2022-12-09T16:01:51.634Z,96815.78
2022-12-09T16:04:21.960Z,96821.19
2022-12-09T16:06:50.779Z,96819.22
2022-12-09T16:09:20.658Z,96820.00
2022-12-09T16:11:54.571Z,96819.16
2022-12-09T16:14:23.936Z,96814.75
2022-12-09T16:17:02.032Z,96812.81
2022-12-09T16:19:34.150Z,96804.88
2022-12-09T16:22:18.094Z,96818.09
2022-12-09T16:25:15.457Z,96815.88
2022-12-09T16:27:49.278Z,96812.53
2022-12-09T16:30:23.090Z,96815.56
2022-12-09T16:32:58.803Z,96810.34
2022-12-09T16:35:38.346Z,96811.44
2022-12-09T16:38:14.790Z,96801.66
2022-12-09T16:40:46.858Z,96791.66
2022-12-09T16:43:19.841Z,96803.66
2022-12-09T16:45:52.412Z,96798.44
2022-12-09T16:48:22.307Z,96807.25
2022-12-09T16:51:13.417Z,96802.19
2022-12-09T16:53:47.788Z,96792.81
2022-12-09T16:56:28.151Z,96794.00
2022-12-09T16:58:57.218Z,96807.69
2022-12-09T17:01:32.260Z,96807.41
2022-12-09T17:04:05.804Z,96814.66
2022-12-09T17:06:34.472Z,96823.03
2022-12-09T17:09:03.623Z,96817.38
2022-12-09T17:11:32.574Z,96813.69
2022-12-09T17:14:01.180Z,96806.84
2022-12-09T17:16:29.951Z,96805.16
2022-12-09T17:18:58.584Z,96803.78
2022-12-09T17:21:27.150Z,96816.56
2022-12-09T17:23:55.739Z,96810.00
2022-12-09T17:26:24.334Z,96821.03
2022-12-09T17:28:58.250Z,96817.28
2022-12-09T17:31:30.622Z,96827.19
2022-12-09T17:34:00.021Z,96812.69
2022-12-09T17:36:29.511Z,96823.66
2022-12-09T17:39:04.051Z,96821.97
2022-12-09T17:41:33.334Z,96824.47
2022-12-09T17:44:01.915Z,96815.00
2022-12-09T17:46:30.545Z,96819.78
2022-12-09T17:49:02.557Z,96815.94
2022-12-09T17:51:35.983Z,96816.09
2022-12-09T17:54:05.558Z,96809.59
2022-12-09T17:56:34.988Z,96806.69
2022-12-09T17:59:07.872Z,96795.91
2022-12-09T18:01:37.212Z,96801.78
2022-12-09T18:04:11.073Z,96793.91
2022-12-09T18:06:45.182Z,96799.69
2022-12-09T18:09:18.418Z,96794.59
2022-12-09T18:11:47.267Z,96794.25
2022-12-09T18:14:16.981Z,96796.72
2022-12-09T18:16:53.238Z,96787.97
2022-12-09T18:19:25.358Z,96793.09
2022-12-09T18:21:57.192Z,96790.88
2022-12-09T18:24:26.446Z,96807.06
2022-12-09T18:26:55.041Z,96804.25
2022-12-09T18:29:24.623Z,96791.50
2022-12-09T18:31:57.768Z,96781.94
2022-12-09T18:34:28.021Z,96787.31
2022-12-09T18:36:57.111Z,96789.19
2022-12-09T18:39:26.293Z,96773.66
2022-12-09T18:41:55.094Z,96774.44
2022-12-09T18:44:23.809Z,96766.69
2022-12-09T18:46:52.382Z,96769.97
2022-12-09T18:49:24.396Z,96762.44
2022-12-09T18:51:53.889Z,96779.06
2022-12-09T18:54:25.161Z,96768.94
2022-12-09T18:56:55.933Z,96771.44
2022-12-09T18:59:28.045Z,96781.59
2022-12-09T19:01:57.096Z,96766.31
2022-12-09T19:04:29.742Z,96757.31
2022-12-09T19:07:00.413Z,96761.47
2022-12-09T19:09:33.608Z,96762.44
2022-12-09T19:12:37.764Z,96760.75
2022-12-09T19:14:52.614Z,96749.13
2022-12-09T19:17:25.048Z,96745.53
2022-12-09T19:19:58.137Z,96731.19
2022-12-09T19:22:28.817Z,96734.72
2022-12-09T19:24:58.065Z,96725.41
2022-12-09T19:27:27.893Z,96725.69
2022-12-09T19:29:59.504Z,96720.63
2022-12-09T19:32:52.657Z,96723.78
2022-12-09T19:35:18.449Z,96730.78
2022-12-09T19:37:49.144Z,96726.00
2022-12-09T19:40:20.077Z,96724.94
2022-12-09T19:42:49.000Z,96722.94
2022-12-09T19:45:19.503Z,96723.78
2022-12-09T19:47:48.218Z,96726.53
2022-12-09T19:50:17.098Z,96720.38
2022-12-09T19:52:45.945Z,96730.88
2022-12-09T19:55:14.949Z,96710.94
2022-12-09T19:57:44.563Z,96717.47
2022-12-09T20:00:14.281Z,96727.03
2022-12-09T20:02:43.039Z,96722.81
2022-12-09T20:05:12.173Z,96725.00
2022-12-09T20:07:41.003Z,96710.06
2022-12-09T20:10:12.061Z,96717.16
2022-12-09T20:12:42.185Z,96706.53
2022-12-09T20:15:12.455Z,96703.97
2022-12-09T20:17:42.438Z,96705.94
2022-12-09T20:20:12.584Z,96704.22
2022-12-09T20:22:42.374Z,96709.53
2022-12-09T20:25:12.293Z,96706.47
2022-12-09T20:27:41.092Z,96702.34
2022-12-09T20:30:10.935Z,96697.53
2022-12-09T20:32:39.803Z,96712.16
2022-12-09T20:35:09.913Z,96694.75
2022-12-09T20:37:39.547Z,96694.22
2022-12-09T20:40:08.773Z,96692.88
2022-12-09T20:42:37.746Z,96691.22
2022-12-09T20:45:07.451Z,96690.53
2022-12-09T20:47:36.690Z,96696.00
2022-12-09T20:50:06.063Z,96698.88
2022-12-09T20:52:34.830Z,96698.16
2022-12-09T20:55:03.459Z,96690.81
2022-12-09T20:57:32.266Z,96708.94
2022-12-09T21:00:00.586Z,96687.50
2022-12-09T21:02:29.390Z,96693.63
2022-12-09T21:04:57.957Z,96681.00
2022-12-09T21:07:26.718Z,96684.53
2022-12-09T21:09:55.385Z,96680.63
2022-12-09T21:12:23.746Z,96693.72
2022-12-09T21:14:52.944Z,96678.13
2022-12-09T21:17:21.942Z,96674.31
2022-12-09T21:19:50.520Z,96685.13
2022-12-09T21:22:18.960Z,96671.19
2022-12-09T21:24:47.622Z,96684.31
2022-12-09T21:27:16.237Z,96692.25
2022-12-09T21:29:45.371Z,96689.31
2022-12-09T21:32:13.794Z,96687.25
2022-12-09T21:34:42.333Z,96689.66
2022-12-09T21:37:11.247Z,96668.56
2022-12-09T21:39:39.749Z,96670.16
2022-12-09T21:42:09.541Z,96675.50
2022-12-09T21:44:38.733Z,96664.59
2022-12-09T21:47:07.235Z,96659.28
2022-12-09T21:49:35.632Z,96662.19
2022-12-09T21:52:06.866Z,96650.22
2022-12-09T21:54:35.196Z,96659.97
2022-12-09T21:57:03.719Z,96663.00
2022-12-09T21:59:32.187Z,96653.13
2022-12-09T22:02:00.992Z,96652.16
2022-12-09T22:04:29.352Z,96653.19
2022-12-09T22:06:57.841Z,96661.44
2022-12-09T22:09:27.612Z,96655.50
2022-12-09T22:11:56.074Z,96656.75
2022-12-09T22:14:24.526Z,96657.34
2022-12-09T22:16:53.671Z,96655.34
2022-12-09T22:19:24.047Z,96645.28
2022-12-09T22:21:52.532Z,96641.00
2022-12-09T22:24:21.088Z,96641.53
2022-12-09T22:26:49.549Z,96635.50
2022-12-09T22:29:18.786Z,96638.78
2022-12-09T22:31:47.586Z,96637.44
2022-12-09T22:34:18.211Z,96625.97
2022-12-09T22:36:47.588Z,96632.00
2022-12-09T22:39:18.223Z,96639.44
2022-12-09T22:41:46.802Z,96643.66
2022-12-09T22:44:17.884Z,96641.25
2022-12-09T22:46:47.516Z,96639.41
2022-12-09T22:49:16.063Z,96636.53
2022-12-09T22:51:44.621Z,96634.69
2022-12-09T22:54:13.872Z,96634.78
2022-12-09T22:56:43.129Z,96631.50
2022-12-09T22:59:12.520Z,96638.28
2022-12-09T23:01:40.918Z,96624.84
2022-12-09T23:04:09.947Z,96629.66
2022-12-09T23:06:38.785Z,96624.34
2022-12-09T23:09:08.592Z,96624.09
2022-12-09T23:11:37.409Z,96633.31
2022-12-09T23:14:06.660Z,96629.31
2022-12-09T23:16:35.729Z,96628.28
2022-12-09T23:19:04.141Z,96624.78
2022-12-09T23:21:34.234Z,96623.19
2022-12-09T23:24:05.328Z,96619.31
2022-12-09T23:26:39.682Z,96619.31
2022-12-09T23:29:09.270Z,96618.91
2022-12-09T23:31:37.831Z,96615.13
2022-12-09T23:34:07.861Z,96610.22
2022-12-09T23:36:38.027Z,96601.72
2022-12-09T23:39:10.106Z,96595.59
2022-12-09T23:41:39.658Z,96593.22
2022-12-09T23:44:10.025Z,96577.88
2022-12-09T23:46:38.486Z,96581.59
2022-12-09T23:49:07.898Z,96587.53
2022-12-09T23:51:39.925Z,96580.13
2022-12-09T23:54:08.701Z,96588.47
2022-12-09T23:56:39.351Z,96594.13
2022-12-09T23:59:09.190Z,96584.81
